Corrales, New Mexico
Current Conditions -  °F | °C
As of 10:52 AM on Thursday 18 Dec 2014 (Local Time) from KABQ Reporting Station
Broken Clouds Broken Clouds  
Wind Chill: 37°   Ceiling: 22000
Heat Index: 40°   Visibility: 10mi
Dew Point: 31°   Wind: 5mph
Humidity: 70%   Direction: NA
Pressure: 30.16"   Gusts: NA
Location:  35.22°N, 106.61°W
Report Text: KABQ 181752Z VRB04KT 10SM FEW030 FEW080 FEW140 BKN220 04/M01 A3016 RMK AO2 SLP211 ACSL NE-SE MTNS OBSC NE-SE T00441006 10044 21017 50002
Loading
Personal Weather Stations






























Interactive Weather Map New forecast layout! Learn more

10-Day Weather Forecast

Advertisements
Track Severe Weather on mobile